Time;durP1;ratioP1;P1;durP2;ratioP2;P2;SDS_P1;SDS_P2;PMS_P1;PMS_P2;Temp;Humidity;BMP_temperature;BMP_pressure;BME280_temperature;BME280_humidity;BME280_pressure;Samples;Min_cycle;Max_cycle;Signal;HPM_P1;HPM_P2
2023/04/02 00:02:32;;;;;;;1.17;0.90;;;9.30;98.00;;;;;;5032127;28;20501;-70
2023/04/02 00:05:49;;;;;;;1.23;1.00;;;9.40;98.00;;;;;;5032112;28;20492;-71
2023/04/02 00:08:23;;;;;;;1.30;1.10;;;9.30;98.00;;;;;;5032101;28;20537;-71
2023/04/02 00:10:54;;;;;;;1.70;1.50;;;9.30;98.00;;;;;;5031722;28;20881;-71
2023/04/02 00:13:33;;;;;;;1.23;1.03;;;9.40;98.00;;;;;;5031936;28;20548;-70
2023/04/02 00:16:03;;;;;;;1.30;1.23;;;9.40;98.00;;;;;;5031890;28;20856;-72
2023/04/02 00:18:32;;;;;;;1.47;1.13;;;9.40;98.00;;;;;;5030823;28;20455;-71
2023/04/02 00:21:08;;;;;;;1.30;1.00;;;9.50;98.00;;;;;;5031890;28;20461;-72
2023/04/02 00:23:37;;;;;;;1.60;1.20;;;9.40;98.00;;;;;;5030597;28;20481;-71
2023/04/02 00:26:25;;;;;;;1.40;1.10;;;9.40;98.00;;;;;;5031617;28;20565;-70
2023/04/02 00:28:53;;;;;;;1.13;1.00;;;9.40;98.00;;;;;;5031794;28;20858;-71
2023/04/02 00:31:20;;;;;;;1.40;1.00;;;9.40;98.00;;;;;;5031793;28;20451;-71
2023/04/02 00:33:49;;;;;;;1.40;1.10;;;9.40;98.00;;;;;;5031677;28;20955;-71
2023/04/02 00:36:18;;;;;;;1.77;1.10;;;9.40;98.00;;;;;;5031768;28;20516;-71
2023/04/02 00:38:47;;;;;;;1.20;1.07;;;9.50;98.00;;;;;;5031473;28;20461;-71
2023/04/02 00:41:21;;;;;;;1.43;1.13;;;9.40;98.00;;;;;;5031871;28;20462;-71
2023/04/02 00:43:50;;;;;;;1.30;1.00;;;9.30;98.00;;;;;;5031688;28;20969;-71
2023/04/02 00:46:22;;;;;;;1.30;1.00;;;9.30;98.00;;;;;;5032017;28;21022;-70
2023/04/02 00:48:56;;;;;;;1.20;1.10;;;9.30;98.00;;;;;;5031681;28;20469;-71
2023/04/02 00:51:27;;;;;;;1.10;0.97;;;9.30;98.00;;;;;;5031952;28;20465;-72
2023/04/02 00:53:58;;;;;;;1.20;1.10;;;9.30;98.00;;;;;;5031605;28;20491;-70
2023/04/02 00:56:31;;;;;;;1.20;1.00;;;9.30;98.00;;;;;;5031762;28;20450;-72
2023/04/02 00:58:58;;;;;;;1.40;1.10;;;9.30;98.00;;;;;;5032320;28;20501;-71
2023/04/02 01:01:33;;;;;;;3.00;1.20;;;9.20;98.00;;;;;;5035434;28;20875;-70
2023/04/02 01:04:02;;;;;;;1.10;0.90;;;9.20;98.00;;;;;;5035208;28;20999;-71
2023/04/02 01:06:33;;;;;;;1.30;1.07;;;9.20;98.00;;;;;;5035306;28;20465;-71
2023/04/02 01:09:20;;;;;;;1.20;1.00;;;9.10;98.00;;;;;;5035104;28;20462;-71
2023/04/02 01:12:29;;;;;;;1.20;1.00;;;9.20;98.00;;;;;;5032213;28;20517;-70
2023/04/02 01:15:06;;;;;;;1.30;1.00;;;9.20;98.00;;;;;;5035126;28;20529;-71
2023/04/02 01:17:47;;;;;;;1.47;1.10;;;9.20;98.00;;;;;;5034954;28;20466;-72
2023/04/02 01:20:48;;;;;;;1.50;1.00;;;9.30;98.00;;;;;;5034960;28;20496;-71
2023/04/02 01:23:21;;;;;;;1.50;1.03;;;9.30;98.00;;;;;;5033808;28;20806;-71
2023/04/02 01:25:54;;;;;;;1.60;1.30;;;9.30;98.00;;;;;;5034749;28;20480;-72
2023/04/02 01:28:28;;;;;;;1.20;1.10;;;9.30;98.00;;;;;;5034881;28;20458;-71
2023/04/02 01:31:06;;;;;;;1.30;1.00;;;9.40;98.00;;;;;;5034787;28;20571;-69
2023/04/02 01:33:35;;;;;;;1.77;1.10;;;9.30;98.00;;;;;;5034831;28;20553;-71
2023/04/02 01:36:11;;;;;;;1.20;1.00;;;9.30;98.00;;;;;;5034808;28;20458;-70
2023/04/02 01:38:44;;;;;;;1.20;0.97;;;9.20;98.00;;;;;;5034201;28;20852;-71
2023/04/02 01:41:21;;;;;;;1.30;1.13;;;9.30;98.00;;;;;;5034812;28;20457;-71
2023/04/02 01:43:53;;;;;;;1.20;1.00;;;9.30;98.00;;;;;;5034638;28;20985;-71
2023/04/02 01:46:35;;;;;;;1.30;1.10;;;9.30;98.00;;;;;;5034752;28;20518;-70
2023/04/02 01:49:13;;;;;;;1.20;1.00;;;9.20;98.00;;;;;;5034614;28;20462;-72
2023/04/02 01:51:43;;;;;;;1.30;1.10;;;9.30;98.00;;;;;;5034718;28;20512;-72
2023/04/02 01:54:11;;;;;;;1.10;1.00;;;9.30;98.00;;;;;;5034592;28;20540;-71
2023/04/02 01:56:38;;;;;;;1.20;1.00;;;9.30;98.00;;;;;;5034664;28;21030;-72
2023/04/02 01:59:06;;;;;;;1.10;1.00;;;9.30;98.00;;;;;;5034277;28;20459;-71
2023/04/02 02:01:42;;;;;;;2.30;1.20;;;9.40;98.00;;;;;;5034544;28;20451;-71
2023/04/02 02:04:13;;;;;;;1.20;1.00;;;9.40;98.00;;;;;;5033957;28;21110;-72
2023/04/02 02:06:45;;;;;;;1.30;1.00;;;9.40;98.00;;;;;;5034508;28;20447;-72
2023/04/02 02:09:17;;;;;;;1.40;1.20;;;9.40;98.00;;;;;;5033986;28;20471;-71
2023/04/02 02:11:44;;;;;;;1.20;1.00;;;9.30;98.00;;;;;;5031962;28;20462;-71
2023/04/02 02:14:18;;;;;;;1.20;1.00;;;9.40;98.00;;;;;;5033989;28;20565;-70
2023/04/02 02:16:52;;;;;;;1.20;1.10;;;9.40;98.00;;;;;;5033747;28;21130;-71
2023/04/02 02:19:26;;;;;;;1.20;1.00;;;9.30;98.00;;;;;;5032532;28;20475;-70
2023/04/02 02:21:56;;;;;;;1.30;1.00;;;9.40;98.00;;;;;;5033432;28;20460;-71
2023/04/02 02:24:26;;;;;;;1.83;1.00;;;9.40;98.00;;;;;;5032003;28;20547;-71
2023/04/02 02:27:15;;;;;;;1.10;1.00;;;9.40;98.00;;;;;;5033372;28;20465;-71
2023/04/02 02:29:44;;;;;;;1.20;0.90;;;9.50;98.00;;;;;;5033512;28;20489;-71
2023/04/02 02:32:15;;;;;;;1.20;1.00;;;9.50;98.00;;;;;;5033672;28;20460;-71
2023/04/02 02:34:49;;;;;;;2.00;1.20;;;9.60;98.00;;;;;;5033578;28;20489;-72
2023/04/02 02:37:23;;;;;;;1.20;0.90;;;9.60;98.00;;;;;;5033194;28;20524;-71
2023/04/02 02:39:55;;;;;;;1.30;1.10;;;9.50;98.00;;;;;;5033240;28;20471;-71
2023/04/02 02:42:26;;;;;;;1.10;1.00;;;9.50;98.00;;;;;;5033475;28;20543;-71
2023/04/02 02:44:56;;;;;;;1.17;1.07;;;9.50;98.00;;;;;;5033450;28;20849;-71
2023/04/02 02:47:28;;;;;;;1.20;1.00;;;9.50;98.00;;;;;;5016218;28;20953;-71
2023/04/02 02:49:59;;;;;;;1.30;1.03;;;9.50;98.00;;;;;;5033444;28;20579;-71
2023/04/02 02:52:27;;;;;;;1.30;1.00;;;9.50;98.00;;;;;;5033530;28;20447;-71
2023/04/02 02:54:58;;;;;;;1.10;1.00;;;9.50;98.00;;;;;;5033744;28;20779;-72
2023/04/02 02:57:29;;;;;;;1.20;1.00;;;9.30;98.00;;;;;;5033566;28;20559;-71
2023/04/02 02:59:59;;;;;;;2.13;1.30;;;9.30;98.00;;;;;;5031937;28;20487;-71
2023/04/02 03:02:29;;;;;;;1.20;1.00;;;9.30;98.00;;;;;;5033068;28;20463;-70
2023/04/02 03:04:58;;;;;;;1.57;1.30;;;9.30;98.00;;;;;;5033104;28;20551;-71
2023/04/02 03:07:29;;;;;;;2.03;1.20;;;9.50;98.00;;;;;;5033013;28;20456;-72
2023/04/02 03:10:04;;;;;;;1.70;1.03;;;9.50;98.00;;;;;;5032777;28;20876;-71
2023/04/02 03:12:44;;;;;;;1.30;1.10;;;9.70;98.00;;;;;;5032895;28;20465;-70
2023/04/02 03:15:23;;;;;;;1.20;1.00;;;9.70;98.00;;;;;;5032810;28;20455;-71
2023/04/02 03:17:57;;;;;;;1.20;1.10;;;9.50;98.00;;;;;;5031682;28;20524;-72
2023/04/02 03:20:30;;;;;;;1.30;1.00;;;9.50;98.00;;;;;;5032712;28;20461;-71
2023/04/02 03:23:03;;;;;;;1.30;1.00;;;9.50;98.00;;;;;;5032922;28;20465;-71
2023/04/02 03:25:38;;;;;;;1.30;1.20;;;9.40;98.00;;;;;;5032638;28;20545;-71
2023/04/02 03:28:13;;;;;;;1.20;1.00;;;9.50;98.00;;;;;;5032857;28;20535;-70
2023/04/02 03:30:45;;;;;;;2.90;1.30;;;9.40;98.00;;;;;;5032375;28;20482;-72
2023/04/02 03:33:21;;;;;;;1.30;1.03;;;9.40;98.00;;;;;;5031334;28;20458;-71
2023/04/02 03:35:56;;;;;;;1.13;1.00;;;9.40;98.00;;;;;;5032366;28;20497;-71
2023/04/02 03:38:28;;;;;;;1.23;1.10;;;9.40;98.00;;;;;;5031042;28;20467;-71
2023/04/02 03:41:03;;;;;;;1.20;1.00;;;9.60;98.00;;;;;;5032479;28;20550;-71
2023/04/02 03:43:35;;;;;;;1.13;1.10;;;9.60;98.00;;;;;;5032485;28;20458;-70
2023/04/02 03:46:13;;;;;;;1.77;1.10;;;9.60;98.00;;;;;;5032556;28;20551;-72
2023/04/02 03:48:46;;;;;;;1.23;1.10;;;9.60;98.00;;;;;;5032585;28;20547;-70
2023/04/02 03:51:17;;;;;;;1.20;0.93;;;9.60;98.00;;;;;;5032424;28;20488;-70
2023/04/02 03:53:46;;;;;;;1.30;1.20;;;9.70;98.00;;;;;;5032517;28;20494;-71
2023/04/02 03:56:23;;;;;;;1.20;1.10;;;9.70;98.00;;;;;;5032092;28;20466;-71
2023/04/02 03:58:59;;;;;;;1.30;1.10;;;9.80;98.00;;;;;;5032300;28;20955;-71
2023/04/02 04:01:33;;;;;;;1.40;1.33;;;9.80;98.00;;;;;;5030933;28;20459;-70
2023/04/02 04:04:10;;;;;;;1.30;1.20;;;9.70;98.00;;;;;;5032067;28;20494;-70
2023/04/02 04:06:41;;;;;;;1.17;1.00;;;9.60;98.00;;;;;;5032075;28;20512;-71
2023/04/02 04:09:16;;;;;;;1.30;1.10;;;9.60;98.00;;;;;;5032161;28;20523;-70
2023/04/02 04:11:46;;;;;;;1.67;1.23;;;9.60;98.00;;;;;;5031925;28;20541;-71
2023/04/02 04:14:18;;;;;;;1.30;1.00;;;9.60;98.00;;;;;;5031906;28;20464;-71
2023/04/02 04:16:52;;;;;;;1.13;0.97;;;9.50;98.00;;;;;;5031842;28;20881;-71
2023/04/02 04:19:31;;;;;;;1.27;1.10;;;9.40;98.00;;;;;;5031889;28;20547;-70
2023/04/02 04:22:10;;;;;;;1.20;1.10;;;9.40;98.00;;;;;;5032078;28;20548;-71
2023/04/02 04:24:38;;;;;;;1.47;1.20;;;9.60;98.00;;;;;;5031630;28;20556;-70
2023/04/02 04:27:12;;;;;;;1.97;1.30;;;9.60;98.00;;;;;;5030643;28;20489;-70
2023/04/02 04:29:46;;;;;;;1.60;1.20;;;9.60;98.00;;;;;;5031480;28;21059;-70
2023/04/02 04:32:26;;;;;;;1.30;1.10;;;9.70;98.00;;;;;;5031809;28;20519;-70
2023/04/02 04:34:59;;;;;;;2.27;1.30;;;9.70;98.00;;;;;;5033785;28;20464;-70
2023/04/02 04:37:52;;;;;;;1.20;1.10;;;9.70;98.00;;;;;;5035871;28;20476;-71
2023/04/02 04:40:22;;;;;;;1.20;1.10;;;9.70;98.00;;;;;;5035638;28;20479;-71
2023/04/02 04:42:55;;;;;;;1.10;0.97;;;9.60;98.00;;;;;;5035712;28;20454;-70
2023/04/02 04:45:36;;;;;;;2.53;1.30;;;9.60;98.00;;;;;;5035897;28;20452;-71
2023/04/02 04:48:05;;;;;;;1.97;1.20;;;9.70;98.00;;;;;;5035885;28;20963;-71
2023/04/02 04:50:38;;;;;;;1.53;1.10;;;9.50;98.00;;;;;;5035881;28;20489;-71
2023/04/02 04:53:06;;;;;;;1.40;1.20;;;9.60;98.00;;;;;;5036192;28;20972;-70
2023/04/02 04:55:40;;;;;;;1.63;1.13;;;9.60;98.00;;;;;;5035690;28;20521;-71
2023/04/02 04:58:17;;;;;;;1.20;1.10;;;9.70;98.00;;;;;;5035565;28;20451;-71
2023/04/02 05:01:00;;;;;;;1.30;1.10;;;9.60;98.00;;;;;;5034373;28;20529;-71
2023/04/02 05:03:33;;;;;;;8.03;1.63;;;9.60;98.00;;;;;;5035074;28;20463;-70
2023/04/02 05:06:16;;;;;;;1.30;1.10;;;9.70;98.00;;;;;;5035353;28;20468;-70
2023/04/02 05:08:47;;;;;;;1.30;1.10;;;9.80;98.00;;;;;;5035134;28;21259;-71
2023/04/02 05:11:21;;;;;;;1.30;1.10;;;9.90;98.00;;;;;;5034937;28;20880;-70
2023/04/02 05:13:52;;;;;;;2.03;1.10;;;9.80;98.00;;;;;;5035217;28;20464;-71
2023/04/02 05:16:25;;;;;;;1.17;1.03;;;9.80;98.00;;;;;;5034960;28;20518;-71
2023/04/02 05:19:00;;;;;;;1.40;1.10;;;9.90;98.00;;;;;;5034899;28;20521;-71
2023/04/02 05:21:35;;;;;;;1.80;1.30;;;9.60;98.00;;;;;;5017836;28;20972;-71
2023/04/02 05:24:27;;;;;;;1.40;1.20;;;9.50;98.00;;;;;;5035038;28;20467;-71
2023/04/02 05:26:59;;;;;;;1.40;1.10;;;9.50;98.00;;;;;;5034837;28;20467;-71
2023/04/02 05:29:29;;;;;;;1.30;1.10;;;9.50;98.00;;;;;;5034751;28;21013;-70
2023/04/02 05:32:02;;;;;;;1.40;1.10;;;9.50;98.00;;;;;;5034782;28;20494;-71
2023/04/02 05:34:38;;;;;;;1.53;1.00;;;9.50;98.00;;;;;;5033542;28;20961;-71
2023/04/02 05:37:13;;;;;;;1.20;1.10;;;9.40;98.00;;;;;;5034990;28;20454;-70
2023/04/02 05:39:44;;;;;;;1.50;1.30;;;9.30;98.00;;;;;;5034457;28;20473;-71
2023/04/02 05:42:20;;;;;;;1.20;1.00;;;9.30;98.00;;;;;;5034750;28;20466;-72
2023/04/02 05:44:58;;;;;;;1.20;1.00;;;9.30;98.00;;;;;;5034491;28;20465;-71
2023/04/02 05:47:29;;;;;;;1.30;1.00;;;9.30;98.00;;;;;;5033703;28;20456;-71
2023/04/02 05:50:15;;;;;;;1.50;1.20;;;9.30;98.00;;;;;;5035069;28;20473;-71
2023/04/02 05:52:48;;;;;;;1.40;1.10;;;9.40;98.00;;;;;;5034416;28;20493;-71
2023/04/02 05:55:30;;;;;;;1.37;1.10;;;9.40;98.00;;;;;;5034195;28;20465;-72
2023/04/02 05:58:04;;;;;;;1.20;1.20;;;9.40;98.00;;;;;;5033365;28;20465;-71
2023/04/02 06:01:01;;;;;;;1.30;1.00;;;9.40;98.00;;;;;;5033590;28;20454;-70
2023/04/02 06:03:39;;;;;;;1.67;1.30;;;9.50;98.00;;;;;;4994837;28;20460;-64
2023/04/02 06:06:17;;;;;;;1.50;1.20;;;9.40;98.00;;;;;;4994772;28;20515;-65
2023/04/02 06:08:55;;;;;;;1.70;1.17;;;9.40;98.00;;;;;;4994688;28;20489;-65
2023/04/02 06:11:26;;;;;;;1.97;1.30;;;9.50;98.00;;;;;;4994678;28;20484;-65
2023/04/02 06:13:54;;;;;;;1.30;1.10;;;9.50;98.00;;;;;;4994775;28;20461;-65
2023/04/02 06:16:25;;;;;;;1.40;1.17;;;9.60;98.00;;;;;;4993499;28;20963;-64
2023/04/02 06:18:52;;;;;;;1.20;1.10;;;9.70;98.00;;;;;;4994714;28;20799;-65
2023/04/02 06:21:21;;;;;;;1.20;1.20;;;9.80;98.00;;;;;;4994585;28;20542;-66
2023/04/02 06:23:55;;;;;;;1.80;1.20;;;9.80;98.00;;;;;;4994480;28;20975;-66
2023/04/02 06:26:27;;;;;;;1.40;1.10;;;9.70;98.00;;;;;;4998445;28;20500;-64
2023/04/02 06:29:01;;;;;;;1.50;1.00;;;9.70;98.00;;;;;;5032782;28;20538;-65
2023/04/02 06:31:37;;;;;;;1.50;1.13;;;9.70;98.00;;;;;;5032367;28;20513;-65
2023/04/02 06:34:06;;;;;;;1.30;1.13;;;9.70;98.00;;;;;;5033910;28;21052;-66
2023/04/02 06:36:34;;;;;;;1.63;1.10;;;9.80;98.00;;;;;;5033713;28;20516;-65
2023/04/02 06:39:07;;;;;;;1.73;1.27;;;9.90;98.00;;;;;;5033719;28;20466;-64
2023/04/02 06:41:34;;;;;;;1.20;1.10;;;9.90;98.00;;;;;;5033602;28;20508;-64
2023/04/02 06:44:05;;;;;;;1.40;1.20;;;9.90;98.00;;;;;;5033700;28;20450;-65
2023/04/02 06:46:36;;;;;;;1.30;1.17;;;9.90;98.00;;;;;;5033485;28;20458;-65
2023/04/02 06:49:14;;;;;;;1.83;1.20;;;10.00;98.00;;;;;;5033698;28;20508;-66
2023/04/02 06:51:44;;;;;;;1.20;1.10;;;9.90;98.00;;;;;;5032079;28;20577;-64
2023/04/02 06:54:18;;;;;;;1.40;1.20;;;9.80;98.00;;;;;;5033237;28;20459;-64
2023/04/02 06:56:47;;;;;;;1.40;1.10;;;9.90;98.00;;;;;;5032999;28;20470;-64
2023/04/02 06:59:15;;;;;;;1.90;1.20;;;9.90;98.00;;;;;;5033272;28;20529;-63
2023/04/02 07:01:48;;;;;;;1.40;1.17;;;9.90;98.00;;;;;;5032826;28;20511;-64
2023/04/02 07:04:15;;;;;;;1.80;1.10;;;9.90;98.00;;;;;;5033104;28;20480;-64
2023/04/02 07:06:44;;;;;;;1.60;1.20;;;9.90;98.00;;;;;;5032993;28;20458;-64
2023/04/02 07:09:11;;;;;;;1.40;1.10;;;10.00;98.00;;;;;;5033035;28;20826;-65
2023/04/02 07:11:40;;;;;;;1.40;1.10;;;10.00;98.00;;;;;;5032694;28;20516;-64
2023/04/02 07:14:07;;;;;;;2.23;1.20;;;10.00;98.00;;;;;;5032834;28;20460;-64
2023/04/02 07:16:35;;;;;;;1.40;1.23;;;10.00;98.00;;;;;;5032837;28;20469;-65
2023/04/02 07:19:03;;;;;;;1.40;1.10;;;10.00;98.00;;;;;;5033023;28;20457;-65
2023/04/02 07:21:30;;;;;;;1.80;1.30;;;10.20;98.00;;;;;;5032569;28;20557;-64
2023/04/02 07:23:58;;;;;;;1.30;1.10;;;10.30;98.00;;;;;;5032945;28;20557;-65
2023/04/02 07:26:27;;;;;;;2.07;1.30;;;10.30;98.00;;;;;;5033039;28;20462;-64
2023/04/02 07:28:57;;;;;;;2.13;1.50;;;10.20;98.00;;;;;;5024596;28;20522;-65
2023/04/02 07:31:26;;;;;;;1.93;1.10;;;10.20;98.00;;;;;;5024010;28;21024;-63
2023/04/02 07:33:54;;;;;;;1.40;1.17;;;10.20;98.00;;;;;;5032940;28;20459;-64
2023/04/02 07:36:24;;;;;;;1.47;1.13;;;10.30;98.00;;;;;;5032570;28;20463;-65
2023/04/02 07:38:51;;;;;;;1.50;1.10;;;10.50;98.00;;;;;;5032349;28;20492;-65
2023/04/02 07:41:20;;;;;;;2.57;1.33;;;10.30;98.00;;;;;;5032290;28;20452;-65
2023/04/02 07:43:48;;;;;;;1.87;1.30;;;10.40;98.00;;;;;;5032489;28;20549;-65
2023/04/02 07:46:17;;;;;;;1.83;1.40;;;10.60;98.00;;;;;;5031957;28;20455;-64
2023/04/02 07:48:45;;;;;;;6.50;1.13;;;10.70;98.00;;;;;;5032318;28;20832;-64
2023/04/02 07:51:17;;;;;;;1.83;1.50;;;10.70;98.00;;;;;;5030236;28;20481;-65
2023/04/02 07:53:48;;;;;;;1.60;1.20;;;10.70;98.00;;;;;;5032316;28;20937;-64
2023/04/02 07:56:17;;;;;;;2.23;1.30;;;10.70;98.00;;;;;;5032232;28;20454;-64
2023/04/02 07:58:45;;;;;;;1.60;1.23;;;10.80;98.00;;;;;;5031966;28;20459;-64
2023/04/02 08:01:22;;;;;;;1.50;1.10;;;10.90;98.00;;;;;;5032176;28;20453;-64
2023/04/02 08:03:50;;;;;;;1.50;1.13;;;11.00;98.00;;;;;;5032024;28;20463;-64
2023/04/02 08:06:17;;;;;;;1.40;1.13;;;11.00;98.00;;;;;;5031976;28;21106;-65
2023/04/02 08:08:44;;;;;;;1.67;1.30;;;11.00;98.00;;;;;;5031264;28;20956;-65
2023/04/02 08:11:12;;;;;;;1.40;1.07;;;11.00;98.00;;;;;;5032048;28;20841;-64
2023/04/02 08:13:40;;;;;;;2.27;1.50;;;11.00;98.00;;;;;;5030670;28;20460;-66
2023/04/02 08:16:08;;;;;;;1.50;1.20;;;11.00;98.00;;;;;;5031455;28;20455;-65
2023/04/02 08:18:38;;;;;;;1.20;1.00;;;11.00;98.00;;;;;;5030105;28;20502;-65
2023/04/02 08:21:07;;;;;;;1.40;1.20;;;11.10;98.00;;;;;;5031634;28;20461;-64
2023/04/02 08:23:35;;;;;;;1.47;1.20;;;11.10;98.00;;;;;;5032025;28;21017;-65
2023/04/02 08:26:03;;;;;;;1.40;1.10;;;11.10;98.00;;;;;;5031884;28;20547;-65
2023/04/02 08:28:31;;;;;;;2.30;1.60;;;11.00;98.00;;;;;;5031946;28;20520;-65
2023/04/02 08:30:58;;;;;;;1.53;1.27;;;11.00;98.00;;;;;;5031974;28;20463;-65
2023/04/02 08:33:25;;;;;;;1.63;1.20;;;11.00;98.00;;;;;;5032063;28;20838;-65
2023/04/02 08:35:53;;;;;;;1.50;1.17;;;11.20;98.00;;;;;;5031537;28;20512;-64
2023/04/02 08:38:22;;;;;;;2.30;1.30;;;11.10;98.00;;;;;;5031952;28;20458;-66
2023/04/02 08:40:50;;;;;;;1.40;1.17;;;11.00;98.00;;;;;;5031822;28;21040;-65
2023/04/02 08:43:36;;;;;;;1.50;1.20;;;11.00;98.00;;;;;;5031967;28;20971;-65
2023/04/02 08:46:10;;;;;;;1.70;1.23;;;11.00;98.00;;;;;;5031988;28;20457;-65
2023/04/02 08:48:39;;;;;;;3.20;1.20;;;11.00;98.00;;;;;;5031910;28;20462;-64
2023/04/02 08:51:21;;;;;;;1.30;1.20;;;11.00;98.00;;;;;;5031593;28;20463;-65
2023/04/02 08:53:49;;;;;;;1.50;1.20;;;11.10;98.00;;;;;;5031710;28;21239;-65
2023/04/02 08:56:19;;;;;;;2.00;1.27;;;11.30;98.00;;;;;;5031362;28;20455;-64
2023/04/02 08:58:50;;;;;;;1.50;1.10;;;11.30;98.00;;;;;;5031463;28;20490;-64
2023/04/02 09:01:27;;;;;;;1.30;1.10;;;11.40;98.00;;;;;;5031906;28;20456;-65
2023/04/02 09:03:58;;;;;;;2.13;1.23;;;11.50;98.00;;;;;;5031684;28;20854;-65
2023/04/02 09:06:29;;;;;;;1.37;1.20;;;11.60;98.00;;;;;;5031419;28;20958;-65
2023/04/02 09:08:59;;;;;;;1.30;1.10;;;11.70;98.00;;;;;;5031488;28;20480;-65
2023/04/02 09:11:32;;;;;;;1.57;1.20;;;11.70;98.00;;;;;;5031506;28;20503;-65
2023/04/02 09:14:03;;;;;;;2.10;1.30;;;11.60;98.00;;;;;;5031696;28;20460;-65
2023/04/02 09:16:44;;;;;;;3.40;1.10;;;11.50;98.00;;;;;;5031568;28;20849;-65
2023/04/02 09:19:17;;;;;;;1.90;1.30;;;11.60;98.00;;;;;;5031457;28;20460;-65
2023/04/02 09:21:52;;;;;;;1.50;1.30;;;11.70;98.00;;;;;;5034714;28;20495;-64
2023/04/02 09:24:23;;;;;;;1.77;1.20;;;11.80;98.00;;;;;;5035002;28;20548;-64
2023/04/02 09:26:50;;;;;;;1.50;1.40;;;11.80;98.00;;;;;;5035025;28;20473;-64
2023/04/02 09:29:39;;;;;;;1.37;1.10;;;11.80;98.00;;;;;;5034962;28;20455;-64
2023/04/02 09:32:35;;;;;;;1.20;1.10;;;11.90;98.00;;;;;;5034989;28;20971;-65
2023/04/02 09:35:08;;;;;;;1.83;1.20;;;12.00;98.00;;;;;;5035011;28;20800;-65
2023/04/02 09:37:37;;;;;;;2.17;1.30;;;12.10;98.00;;;;;;5034966;28;20501;-65
2023/04/02 09:40:18;;;;;;;1.30;1.20;;;12.10;98.00;;;;;;5034944;28;20471;-65
2023/04/02 09:42:47;;;;;;;2.53;1.43;;;12.10;98.00;;;;;;5034959;28;20525;-65
2023/04/02 09:45:19;;;;;;;1.67;1.30;;;12.20;98.00;;;;;;5034914;28;20507;-64
2023/04/02 09:47:48;;;;;;;1.30;1.13;;;12.10;98.00;;;;;;5034736;28;20457;-64
2023/04/02 09:50:28;;;;;;;1.30;1.10;;;12.20;98.00;;;;;;5034349;28;20518;-64
2023/04/02 09:53:16;;;;;;;1.73;1.40;;;12.20;98.00;;;;;;5034551;28;20566;-65
2023/04/02 09:55:45;;;;;;;1.20;1.00;;;12.40;98.00;;;;;;5034138;28;20547;-64
2023/04/02 09:58:14;;;;;;;1.40;1.30;;;12.50;98.00;;;;;;5033181;28;20989;-64
2023/04/02 10:00:50;;;;;;;2.80;1.47;;;12.60;98.00;;;;;;5034219;28;20470;-64
2023/04/02 10:03:24;;;;;;;4.23;1.20;;;12.50;98.00;;;;;;5034514;28;20488;-65
2023/04/02 10:06:08;;;;;;;1.30;1.20;;;12.60;98.00;;;;;;5016776;28;20466;-64
2023/04/02 10:08:40;;;;;;;1.30;1.10;;;12.70;98.00;;;;;;5034019;28;20551;-65
2023/04/02 10:11:10;;;;;;;1.70;1.20;;;12.80;98.00;;;;;;5033004;28;20460;-64
2023/04/02 10:13:46;;;;;;;1.40;1.30;;;12.80;98.00;;;;;;5033928;28;20574;-65
2023/04/02 10:16:17;;;;;;;1.40;1.30;;;12.80;98.00;;;;;;5033948;28;20506;-64
2023/04/02 10:18:49;;;;;;;1.50;1.30;;;12.90;98.00;;;;;;5032814;28;20459;-64
2023/04/02 10:21:18;;;;;;;1.53;1.20;;;12.90;98.00;;;;;;5034089;28;20461;-65
2023/04/02 10:23:47;;;;;;;1.57;1.23;;;12.90;98.00;;;;;;5033942;28;20451;-65
2023/04/02 10:26:46;;;;;;;1.43;1.30;;;12.70;98.00;;;;;;5033968;28;20460;-64
2023/04/02 10:29:36;;;;;;;1.70;1.20;;;12.60;98.00;;;;;;5034023;28;20511;-65
2023/04/02 10:32:08;;;;;;;1.50;1.30;;;12.60;98.00;;;;;;5023871;28;20547;-65
2023/04/02 10:34:43;;;;;;;1.53;1.30;;;12.80;98.00;;;;;;5034022;28;20985;-64
2023/04/02 10:37:47;;;;;;;1.60;1.30;;;13.00;98.00;;;;;;5034160;28;20455;-65
2023/04/02 10:40:23;;;;;;;1.97;1.20;;;13.10;98.00;;;;;;5033849;28;20861;-65
2023/04/02 10:42:58;;;;;;;1.20;1.20;;;13.40;98.00;;;;;;5033694;28;21009;-65
2023/04/02 10:45:38;;;;;;;1.53;1.10;;;13.70;98.00;;;;;;5033620;28;20473;-64
2023/04/02 10:48:15;;;;;;;1.60;1.30;;;13.90;98.00;;;;;;5033402;28;21074;-65
2023/04/02 10:50:48;;;;;;;1.50;1.30;;;14.00;98.00;;;;;;5033635;28;20464;-64
2023/04/02 10:53:17;;;;;;;1.73;1.40;;;14.20;98.00;;;;;;5033252;28;20524;-64
2023/04/02 10:55:51;;;;;;;4.60;1.40;;;14.40;98.00;;;;;;5033373;28;20532;-65
2023/04/02 10:58:24;;;;;;;1.20;1.10;;;14.60;98.00;;;;;;5033186;28;20458;-65
2023/04/02 11:00:55;;;;;;;1.30;1.10;;;14.60;98.00;;;;;;5033115;28;20460;-65
2023/04/02 11:03:31;;;;;;;2.90;1.37;;;14.80;98.00;;;;;;5033104;28;20837;-65
2023/04/02 11:06:02;;;;;;;1.60;1.20;;;14.80;98.00;;;;;;5032992;28;20541;-64
2023/04/02 11:08:38;;;;;;;1.70;1.33;;;14.80;98.00;;;;;;5033118;28;20904;-64
2023/04/02 11:11:12;;;;;;;1.30;1.13;;;14.80;98.00;;;;;;5032966;28;20523;-65
2023/04/02 11:13:49;;;;;;;1.57;1.37;;;14.60;98.00;;;;;;5032774;28;20548;-64
2023/04/02 11:16:16;;;;;;;1.70;1.30;;;14.40;98.00;;;;;;5032951;28;21224;-64
2023/04/02 11:19:03;;;;;;;1.33;1.30;;;14.30;98.00;;;;;;5032746;28;20458;-65
2023/04/02 11:21:42;;;;;;;1.53;1.13;;;14.30;98.00;;;;;;5032682;28;20476;-65
2023/04/02 11:24:24;;;;;;;1.70;1.13;;;14.10;98.00;;;;;;5032667;28;20503;-65
2023/04/02 11:26:54;;;;;;;1.20;1.00;;;13.90;98.00;;;;;;5032841;28;20461;-65
2023/04/02 11:29:24;;;;;;;1.63;1.20;;;13.70;98.00;;;;;;5032752;28;20461;-64
2023/04/02 11:32:26;;;;;;;1.83;1.30;;;13.60;98.00;;;;;;5032607;28;20456;-65
2023/04/02 11:35:25;;;;;;;1.33;1.00;;;13.40;98.00;;;;;;5032700;28;20472;-65
2023/04/02 11:37:53;;;;;;;1.73;1.10;;;13.50;98.00;;;;;;5032924;28;20501;-65
2023/04/02 11:40:43;;;;;;;1.50;1.30;;;13.50;98.00;;;;;;5032581;28;20472;-65
2023/04/02 11:43:50;;;;;;;1.20;1.10;;;13.50;98.00;;;;;;5032289;28;20835;-65
2023/04/02 11:46:41;;;;;;;1.20;1.10;;;13.50;98.00;;;;;;5032369;28;20831;-65
2023/04/02 11:49:38;;;;;;;1.43;1.27;;;13.40;98.00;;;;;;5032346;28;21007;-65
2023/04/02 11:52:23;;;;;;;1.40;1.10;;;13.50;98.00;;;;;;5006582;28;20479;-65
2023/04/02 11:55:25;;;;;;;1.20;1.00;;;13.30;98.00;;;;;;5032185;28;20965;-64
2023/04/02 11:58:30;;;;;;;1.50;1.20;;;13.30;98.00;;;;;;5032157;28;20821;-64
2023/04/02 12:01:37;;;;;;;1.40;1.10;;;13.20;98.00;;;;;;5032220;28;20495;-65
2023/04/02 12:04:41;;;;;;;2.37;1.40;;;13.30;98.00;;;;;;5032007;28;20464;-64
2023/04/02 12:07:35;;;;;;;1.50;1.20;;;13.40;98.00;;;;;;5031965;28;20464;-65
2023/04/02 12:10:04;;;;;;;1.33;1.20;;;13.30;98.00;;;;;;5031386;28;20457;-65
2023/04/02 12:12:36;;;;;;;2.70;1.20;;;13.20;98.00;;;;;;5031653;28;20568;-65
2023/04/02 12:15:04;;;;;;;1.20;1.10;;;13.20;98.00;;;;;;5030916;28;20838;-65
2023/04/02 12:17:36;;;;;;;1.20;1.10;;;13.10;98.00;;;;;;5031276;28;20511;-66
2023/04/02 12:20:19;;;;;;;1.53;1.20;;;13.20;98.00;;;;;;5031129;28;20463;-67
2023/04/02 12:22:49;;;;;;;1.20;1.10;;;13.30;98.00;;;;;;5031250;28;20456;-64
2023/04/02 12:25:28;;;;;;;1.20;1.10;;;13.40;98.00;;;;;;5031519;28;20471;-65
2023/04/02 12:28:08;;;;;;;1.30;1.10;;;13.30;98.00;;;;;;5031202;28;20456;-65
2023/04/02 12:30:37;;;;;;;9.33;1.10;;;13.10;98.00;;;;;;5031062;28;20479;-64
2023/04/02 12:33:36;;;;;;;1.80;1.17;;;13.20;98.00;;;;;;5031235;28;20484;-65
2023/04/02 12:36:05;;;;;;;1.20;1.10;;;13.20;98.00;;;;;;4997359;28;20963;-64
2023/04/02 12:38:36;;;;;;;1.40;1.07;;;13.20;98.00;;;;;;5031165;28;20583;-64
2023/04/02 12:41:05;;;;;;;1.50;1.10;;;13.30;98.00;;;;;;5031362;28;20461;-65
2023/04/02 12:43:34;;;;;;;1.50;1.23;;;13.50;98.00;;;;;;5031298;28;20462;-64
2023/04/02 12:46:15;;;;;;;1.30;1.10;;;13.40;98.00;;;;;;5030932;28;20457;-65
2023/04/02 12:48:43;;;;;;;1.30;1.10;;;13.40;98.00;;;;;;5031100;28;20479;-64
2023/04/02 12:51:11;;;;;;;2.13;1.33;;;13.50;98.00;;;;;;5030836;28;20464;-65
2023/04/02 12:53:41;;;;;;;1.20;1.10;;;13.50;98.00;;;;;;5030744;28;20489;-65
2023/04/02 12:56:18;;;;;;;1.30;1.20;;;13.50;98.00;;;;;;5033489;28;20553;-65
2023/04/02 12:58:53;;;;;;;2.57;1.20;;;13.60;98.00;;;;;;5034830;28;20869;-64
2023/04/02 13:01:23;;;;;;;1.53;1.30;;;13.60;98.00;;;;;;5034798;28;20542;-65
2023/04/02 13:04:05;;;;;;;2.00;1.10;;;13.50;98.00;;;;;;5034672;28;20448;-65
2023/04/02 13:06:33;;;;;;;2.07;1.70;;;13.40;98.00;;;;;;5034534;28;20645;-65
2023/04/02 13:09:05;;;;;;;1.70;1.30;;;13.30;98.00;;;;;;5034692;28;20461;-64
2023/04/02 13:11:37;;;;;;;1.40;1.30;;;13.20;98.00;;;;;;5033383;28;21013;-64
2023/04/02 13:14:18;;;;;;;1.77;1.40;;;13.10;98.00;;;;;;5034561;28;20899;-65
2023/04/02 13:16:46;;;;;;;2.07;1.40;;;13.00;98.00;;;;;;5034203;28;20449;-65
2023/04/02 13:19:29;;;;;;;1.70;1.47;;;12.90;98.00;;;;;;5034296;28;20476;-65
2023/04/02 13:21:58;;;;;;;1.70;1.27;;;12.80;98.00;;;;;;5034107;28;20458;-65
2023/04/02 13:24:27;;;;;;;1.30;1.10;;;12.80;98.00;;;;;;5034048;28;20459;-64
2023/04/02 13:26:57;;;;;;;1.70;1.30;;;12.70;98.00;;;;;;5034399;28;20956;-65
2023/04/02 13:29:26;;;;;;;2.40;1.53;;;12.60;98.00;;;;;;5034116;28;20467;-65
2023/04/02 13:31:55;;;;;;;1.70;1.30;;;12.60;98.00;;;;;;5034163;28;20467;-65